CW3276 Weather Reports


time (UTC)temp
C
wind
direction
speed
KPH
gust
KPH
rain 1hr
cm
rain 24hr
cm
rain mn
cm
humidity
%
barometer
mb
20190822002347 11 23 0.0 0.0 0.00 0.03 0.00 95 1025.9
20190822001314 11 23 0.0 0.0 0.00 0.03 0.00 95 1025.9
20190822000250 11 23 0.0 0.0 0.00 0.03 0.00 95 1025.9
20190821235232 11 23 0.0 0.0 0.00 0.03 0.00 94 1026.0
20190821234204 11 23 0.0 0.0 0.00 0.03 0.00 95 1026.0
20190821233135 11 23 0.0 0.0 0.00 0.03 0.00 94 1025.9
20190821232107 11 23 0.0 0.0 0.00 0.03 0.00 94 1026.0
20190821231057 11 23 0.0 0.0 0.00 0.03 0.00 94 1026.0
20190821230031 11 23 0.0 0.0 0.00 0.03 0.00 94 1026.0
20190821224954 12 23 0.0 0.0 0.00 0.03 0.00 94 1025.9
20190821223921 12 23 0.0 0.0 0.00 0.03 0.00 94 1025.9
20190821222912 12 23 0.0 0.0 0.00 0.03 0.00 93 1026.1
20190821221853 12 23 0.0 0.0 0.00 0.03 0.00 93 1026.1
20190821220841 12 23 0.0 0.0 0.00 0.03 0.00 93 1026.1
20190821215804 12 23 0.0 0.0 0.00 0.03 0.03 93 1026.2
20190821214728 13 23 0.0 0.0 0.00 0.03 0.03 93 1026.2
20190821213652 13 23 0.0 0.0 0.00 0.03 0.03 93 1026.2
20190821212631 13 23 0.0 0.0 0.00 0.03 0.03 92 1026.2
20190821211554 13 23 0.0 0.0 0.00 0.03 0.03 92 1026.1
20190821210540 13 23 0.0 0.0 0.00 0.03 0.03 92 1026.1
20190821205505 13 23 0.0 0.0 0.00 0.03 0.03 91 1025.9
20190821204450 13 23 0.0 0.0 0.00 0.03 0.03 91 1025.9
20190821203442 14 23 0.0 0.0 0.00 0.03 0.03 91 1025.9
20190821202427 14 23 0.0 0.0 0.00 0.03 0.03 90 1025.8
20190821201348 15 23 0.0 0.0 0.00 0.03 0.03 89 1025.8
20190821200330 15 23 0.0 0.0 0.00 0.03 0.03 89 1025.8
20190821195310 15 23 0.0 0.0 0.00 0.03 0.03 88 1025.7
20190821194256 15 23 0.0 0.0 0.00 0.03 0.03 87 1025.7
20190821193244 15 23 0.0 0.0 0.00 0.03 0.03 86 1025.7
20190821192240 16 23 0.0 0.0 0.00 0.05 0.03 84 1025.4
20190821191226 16 23 0.0 0.0 0.00 0.05 0.03 84 1025.4
20190821190208 17 23 0.0 0.0 0.00 0.05 0.03 83 1025.3
20190821185144 17 23 0.0 0.0 0.00 0.05 0.03 82 1025.3
20190821184112 17 23 0.0 0.0 0.00 0.05 0.03 81 1025.2
20190821183053 18 23 0.0 0.0 0.00 0.05 0.03 79 1025.2
20190821182041 18 23 0.0 1.6 0.00 0.05 0.03 76 1025.2
20190821181004 18 23 0.0 0.0 0.00 0.05 0.03 74 1025.2
20190821175952 18 23 0.0 1.6 0.00 0.05 0.03 73 1025.2
20190821174941 19 23 0.0 1.6 0.00 0.28 0.03 71 1025.2
20190821173902 19 23 1.6 3.2 0.00 0.43 0.03 69 1025.2
20190821172845 19 0 0.0 3.2 0.00 0.51 0.03 68 1025.2
20190821171832 19 338 1.6 4.8 0.00 0.69 0.03 67 1025.3
20190821170818 20 315 1.6 4.8 0.00 0.74 0.03 65 1025.3
20190821165805 20 293 1.6 4.8 0.00 0.74 0.03 64 1025.3
20190821164743 20 315 1.6 4.8 0.00 0.74 0.03 64 1025.4
20190821163733 20 293 1.6 8.0 0.00 0.74 0.03 62 1025.4
20190821162716 21 315 3.2 9.7 0.00 0.74 0.03 61 1025.3
20190821161659 21 315 3.2 9.7 0.00 0.74 0.03 60 1025.3
20190821160659 21 293 3.2 9.7 0.00 0.74 0.03 59 1025.3
20190821155639 21 248 3.2 9.7 0.00 0.74 0.03 58 1025.2
20190821154626 21 270 3.2 8.0 0.00 0.74 0.03 59 1025.2
20190821153618 21 248 4.8 14.5 0.00 0.74 0.03 60 1025.2
20190821152538 21 225 4.8 9.7 0.00 0.74 0.03 58 1025.2
20190821151536 21 270 4.8 9.7 0.00 0.74 0.03 59 1025.2
20190821145522 21 315 6.4 14.5 0.00 0.74 0.03 62 1025.2
20190821144422 21 248 6.4 14.5 0.00 0.74 0.03 60 1025.2
20190821143346 21 315 3.2 9.7 0.00 0.74 0.03 61 1025.2
20190821142306 21 315 3.2 9.7 0.00 0.74 0.03 62 1025.2
20190821141306 21 270 4.8 11.3 0.00 0.74 0.03 59 1025.1
20190821140259 22 315 4.8 17.7 0.00 0.74 0.03 60 1025.1
20190821135254 22 225 6.4 19.3 0.00 0.74 0.03 56 1025.2
20190821134214 21 203 3.2 9.7 0.00 0.74 0.03 61 1025.2
20190821133210 21 248 4.8 11.3 0.00 0.74 0.03 60 1025.3
20190821132145 21 225 6.4 17.7 0.00 0.74 0.03 59 1025.2
20190821131110 21 270 6.4 16.1 0.00 0.74 0.03 60 1025.2
20190821130047 21 225 8.0 16.1 0.00 0.74 0.03 57 1025.3
20190821125036 21 248 6.4 17.7 0.00 0.74 0.03 58 1025.4
20190821124036 21 248 6.4 17.7 0.00 0.74 0.03 57 1025.4
20190821123035 20 293 3.2 14.5 0.00 0.74 0.03 69 1025.5
20190821122032 19 270 4.8 9.7 0.00 0.74 0.03 67 1025.5
20190821120956 19 248 6.4 12.9 0.00 0.74 0.03 66 1025.5
20190821115916 20 270 6.4 17.7 0.00 0.74 0.03 64 1025.4
20190821114839 21 270 6.4 17.7 0.00 0.74 0.03 63 1025.4
20190821113837 21 293 9.7 22.5 0.00 0.74 0.03 64 1025.4
20190821112837 21 203 8.0 22.5 0.00 0.74 0.03 63 1025.4
20190821111824 20 248 6.4 22.5 0.00 0.74 0.03 65 1025.4
20190821110818 21 315 4.8 11.3 0.00 0.74 0.03 65 1025.4
20190821103735 20 225 8.0 16.1 0.00 0.74 0.03 68 1025.4
20190821102732 20 248 6.4 14.5 0.00 0.74 0.03 73 1025.4
20190821101714 19 225 4.8 11.3 0.00 0.74 0.03 77 1025.4
20190821100635 20 315 4.8 11.3 0.00 0.74 0.03 77 1025.4
20190821095631 19 270 6.4 17.7 0.00 0.74 0.03 73 1025.4
20190821094609 19 293 8.0 17.7 0.00 0.74 0.03 76 1025.3
20190821093533 19 270 6.4 17.7 0.00 0.74 0.03 76 1025.3
20190821092532 18 248 8.0 17.7 0.00 0.74 0.03 78 1025.5
20190821091531 18 270 9.7 19.3 0.00 0.74 0.03 76 1025.3
20190821090521 18 225 8.0 17.7 0.00 0.74 0.03 79 1025.3
20190821085439 18 225 6.4 19.3 0.00 0.74 0.03 78 1025.3
20190821084433 18 270 4.8 22.5 0.00 0.74 0.03 83 1025.3
20190821083428 17 225 8.0 22.5 0.03 0.74 0.03 82 1025.3
20190821082425 17 270 4.8 11.3 0.03 0.74 0.03 89 1025.3
20190821081347 17 225 4.8 17.7 0.03 0.74 0.03 91 1025.4
20190821080312 16 203 4.8 17.7 0.03 0.74 0.03 94 1025.4
20190821075306 16 203 4.8 12.9 0.03 0.74 0.03 97 1025.3
20190821074225 15 203 4.8 11.3 0.00 0.71 0.00 99 1025.3
20190821073146 15 225 3.2 8.0 0.00 0.71 0.00 99 1025.3
20190821072110 14 225 3.2 9.7 0.00 0.71 0.00 99 1025.2
20190821071050 13 248 3.2 8.0 0.00 0.71 0.00 99 1025.2
20190821070012 13 203 3.2 8.0 0.00 0.71 0.00 99 1025.1
20190821064938 12 225 3.2 9.7 0.00 0.71 0.00 98 1024.9
20190821063933 12 225 3.2 11.3 0.00 0.71 0.00 98 1024.9
20190821062928 12 180 0.0 3.2 0.00 0.71 0.00 98 1024.8
20190821061926 11 180 0.0 3.2 0.00 0.71 0.00 98 1024.7
20190821060904 11 180 0.0 3.2 0.00 0.71 0.00 98 1024.8
20190821055829 11 180 0.0 3.2 0.00 0.71 0.00 97 1024.7
20190821054817 11 180 0.0 4.8 0.00 0.71 0.00 97 1024.5
20190821053817 11 180 1.6 3.2 0.00 0.71 0.00 97 1024.5
20190821052815 10 180 1.6 3.2 0.00 0.71 0.00 96 1024.4
20190821051813 10 180 0.0 3.2 0.00 0.71 0.00 96 1024.3
20190821050736 10 180 0.0 3.2 0.00 0.71 0.00 96 1024.3
20190821045734 10 180 0.0 1.6 0.00 0.71 0.00 96 1024.2
20190821044734 10 180 0.0 3.2 0.00 0.71 0.00 96 1024.0
20190821043658 10 180 0.0 1.6 0.00 0.71 0.00 96 1024.0
20190821042618 10 180 0.0 1.6 0.00 0.71 0.00 96 1023.9
20190821041541 10 180 0.0 1.6 0.00 0.71 0.00 96 1023.8
20190821040514 10 180 0.0 1.6 0.00 0.71 0.00 96 1023.8
20190821035451 10 180 0.0 1.6 0.00 0.71 0.00 96 1023.8
20190821034421 10 180 0.0 0.0 0.00 0.71 0.00 96 1023.8
20190821033400 11 180 0.0 0.0 0.00 0.71 0.00 96 1023.8
20190821032327 11 180 0.0 0.0 0.00 0.71 0.00 95 1023.6
20190821031300 11 180 0.0 0.0 0.00 0.71 0.00 95 1023.5
20190821030234 11 180 0.0 0.0 0.00 0.71 0.00 95 1023.2
20190821025208 11 180 0.0 0.0 0.00 0.71 0.00 95 1023.2
20190821024143 11 180 0.0 0.0 0.00 0.71 0.00 96 1023.2
20190821023120 11 180 0.0 0.0 0.00 0.71 0.00 95 1023.2
20190821022051 11 180 0.0 0.0 0.00 0.71 0.00 95 1023.2
20190821021026 11 180 0.0 0.0 0.00 0.71 0.00 95 1023.2
20190821015955 12 180 0.0 1.6 0.00 0.71 0.00 95 1023.2
20190821014931 12 180 0.0 0.0 0.00 0.71 0.00 95 1023.0
20190821013852 12 180 0.0 0.0 0.00 0.71 0.00 95 1023.0
20190821012821 12 180 0.0 0.0 0.00 0.71 0.00 95 1022.8
20190821011755 12 180 0.0 0.0 0.00 0.71 0.00 95 1022.7
20190821010730 12 180 0.0 0.0 0.00 0.71 0.00 95 1022.7
20190821005707 12 180 0.0 0.0 0.00 0.71 0.00 95 1022.7
20190821004644 13 180 0.0 0.0 0.00 0.71 0.00 95 1022.6
20190821003613 13 180 0.0 0.0 0.00 0.71 0.00 95 1022.6
20190821002544 13 180 0.0 3.2 0.00 0.71 0.00 96 1022.6